createdAt,value
2019-05-18T00:02:00.417Z,96518.28
2019-05-18T00:04:27.448Z,96514.77
2019-05-18T00:06:54.828Z,96518.28
2019-05-18T00:09:21.998Z,96513.98
2019-05-18T00:11:49.146Z,96510.59
2019-05-18T00:14:16.447Z,96506.21
2019-05-18T00:16:43.473Z,96513.51
2019-05-18T00:19:11.128Z,96508.53
2019-05-18T00:21:38.443Z,96507.67
2019-05-18T00:24:05.692Z,96502.47
2019-05-18T00:26:33.127Z,96496.73
2019-05-18T00:29:00.075Z,96487.45
2019-05-18T00:31:29.477Z,96487.03
2019-05-18T00:33:56.814Z,96487.16
2019-05-18T00:36:24.460Z,96493.66
2019-05-18T00:38:51.505Z,96488.90
2019-05-18T00:41:18.719Z,96493.89
2019-05-18T00:43:45.975Z,96506.84
2019-05-18T00:46:13.079Z,96513.75
2019-05-18T00:48:40.589Z,96514.89
2019-05-18T00:51:07.784Z,96510.69
2019-05-18T00:53:35.449Z,96525.30
2019-05-18T00:56:02.911Z,96521.42
2019-05-18T00:58:30.023Z,96516.44
2019-05-18T01:00:58.602Z,96517.79
2019-05-18T01:03:25.828Z,96513.41
2019-05-18T01:05:53.583Z,96509.38
2019-05-18T01:08:20.833Z,96509.38
2019-05-18T01:10:48.606Z,96519.83
2019-05-18T01:13:15.930Z,96512.47
2019-05-18T01:15:43.727Z,96511.26
2019-05-18T01:18:11.157Z,96523.69
2019-05-18T01:20:38.694Z,96515.64
2019-05-18T01:23:06.569Z,96508.50
2019-05-18T01:25:33.800Z,96500.02
2019-05-18T01:28:00.994Z,96500.58
2019-05-18T01:30:28.535Z,96502.05
2019-05-18T01:32:56.575Z,96506.24
2019-05-18T01:35:23.863Z,96515.11
2019-05-18T01:37:51.261Z,96508.31
2019-05-18T01:40:19.605Z,96499.23
2019-05-18T01:42:46.947Z,96511.45
2019-05-18T01:45:17.474Z,96510.58
2019-05-18T01:47:45.550Z,96508.77
2019-05-18T01:50:14.016Z,96500.08
2019-05-18T01:52:41.118Z,96494.77
2019-05-18T01:55:09.001Z,96497.70
2019-05-18T01:57:36.422Z,96494.20
2019-05-18T02:00:05.062Z,96493.41
2019-05-18T02:02:33.234Z,96486.27
2019-05-18T02:05:05.748Z,96488.42
2019-05-18T02:07:34.909Z,96488.42
2019-05-18T02:10:04.012Z,96492.02
2019-05-18T02:12:31.307Z,96505.83
2019-05-18T02:14:58.548Z,96506.70
2019-05-18T02:17:44.243Z,96499.44
2019-05-18T02:20:12.079Z,96492.84
2019-05-18T02:22:39.194Z,96494.69
2019-05-18T02:25:06.644Z,96493.59
2019-05-18T02:27:33.758Z,96484.66
2019-05-18T02:30:01.881Z,96486.50
2019-05-18T02:32:29.123Z,96479.17
2019-05-18T02:34:56.477Z,96482.34
2019-05-18T02:37:23.726Z,96478.83
2019-05-18T02:39:54.061Z,96481.89
2019-05-18T02:42:21.339Z,96485.77
2019-05-18T02:44:48.665Z,96485.88
2019-05-18T02:47:15.764Z,96475.70
2019-05-18T02:49:42.845Z,96473.91
2019-05-18T02:52:10.632Z,96469.73
2019-05-18T02:54:40.382Z,96471.77
2019-05-18T02:57:07.825Z,96476.97
2019-05-18T02:59:35.246Z,96473.27
2019-05-18T03:02:02.576Z,96472.59
2019-05-18T03:04:29.819Z,96475.30
2019-05-18T03:06:57.654Z,96472.25
2019-05-18T03:09:24.904Z,96462.29
2019-05-18T03:11:52.330Z,96460.36
2019-05-18T03:14:19.925Z,96469.41
2019-05-18T03:16:47.062Z,96468.06
2019-05-18T03:19:14.476Z,96464.35
2019-05-18T03:21:44.286Z,96468.20
2019-05-18T03:24:11.633Z,96464.80
2019-05-18T03:26:40.563Z,96464.13
2019-05-18T03:29:07.792Z,96462.57
2019-05-18T03:31:35.089Z,96462.77
2019-05-18T03:34:02.343Z,96473.63
2019-05-18T03:36:29.649Z,96477.92
2019-05-18T03:38:56.660Z,96462.88
2019-05-18T03:41:23.978Z,96470.44
2019-05-18T03:43:51.114Z,96464.89
2019-05-18T03:46:18.442Z,96469.05
2019-05-18T03:48:45.968Z,96465.91
2019-05-18T03:51:13.344Z,96457.65
2019-05-18T03:53:40.616Z,96456.77
2019-05-18T03:56:07.522Z,96455.53
2019-05-18T03:58:34.512Z,96456.66
2019-05-18T04:01:01.666Z,96459.15
2019-05-18T04:03:29.747Z,96454.20
2019-05-18T04:05:56.649Z,96459.17
2019-05-18T04:08:24.975Z,96457.81
2019-05-18T04:10:51.852Z,96454.20
2019-05-18T04:13:19.241Z,96458.35
2019-05-18T04:15:46.228Z,96460.70
2019-05-18T04:18:13.128Z,96457.77
2019-05-18T04:20:40.075Z,96457.47
2019-05-18T04:23:07.352Z,96459.03
2019-05-18T04:25:35.587Z,96458.88
2019-05-18T04:28:02.795Z,96455.92
2019-05-18T04:30:29.876Z,96462.00
2019-05-18T04:32:56.981Z,96465.25
2019-05-18T04:35:23.927Z,96466.95
2019-05-18T04:37:50.834Z,96466.60
2019-05-18T04:40:18.280Z,96465.55
2019-05-18T04:42:45.383Z,96461.75
2019-05-18T04:45:12.889Z,96463.70
2019-05-18T04:47:40.170Z,96476.51
2019-05-18T04:50:07.552Z,96471.63
2019-05-18T04:52:34.527Z,96484.22
2019-05-18T04:55:01.582Z,96476.76
2019-05-18T04:57:28.597Z,96480.43
2019-05-18T04:59:55.696Z,96474.61
2019-05-18T05:02:23.444Z,96477.88
2019-05-18T05:04:54.121Z,96467.58
2019-05-18T05:07:19.768Z,96467.77
2019-05-18T05:09:46.963Z,96465.25
2019-05-18T05:12:14.056Z,96466.14
2019-05-18T05:14:41.842Z,96462.19
2019-05-18T05:17:09.127Z,96460.70
2019-05-18T05:19:36.065Z,96464.13
2019-05-18T05:22:03.509Z,96464.92
2019-05-18T05:24:30.943Z,96463.73
2019-05-18T05:26:58.156Z,96464.78
2019-05-18T05:29:25.324Z,96467.34
2019-05-18T05:31:52.167Z,96471.00
2019-05-18T05:34:19.611Z,96470.75
2019-05-18T05:36:46.724Z,96460.47
2019-05-18T05:39:15.328Z,96462.41
2019-05-18T05:41:42.533Z,96461.79
2019-05-18T05:44:09.609Z,96462.11
2019-05-18T05:46:37.432Z,96461.78
2019-05-18T05:49:04.684Z,96457.09
2019-05-18T05:51:31.803Z,96463.94
2019-05-18T05:53:58.799Z,96458.81
2019-05-18T05:56:26.096Z,96461.09
2019-05-18T05:58:54.122Z,96467.61
2019-05-18T06:01:21.474Z,96478.50
2019-05-18T06:03:48.784Z,96477.63
2019-05-18T06:06:15.841Z,96480.69
2019-05-18T06:08:43.131Z,96478.81
2019-05-18T06:11:10.170Z,96470.48
2019-05-18T06:13:37.509Z,96472.80
2019-05-18T06:16:04.625Z,96472.02
2019-05-18T06:18:32.036Z,96477.81
2019-05-18T06:20:59.282Z,96467.12
2019-05-18T06:23:26.284Z,96474.13
2019-05-18T06:25:53.493Z,96465.50
2019-05-18T06:28:20.573Z,96464.67
2019-05-18T06:30:47.853Z,96459.62
2019-05-18T06:33:15.084Z,96460.30
2019-05-18T06:35:42.134Z,96460.82
2019-05-18T06:38:09.302Z,96454.94
2019-05-18T06:40:36.299Z,96453.93
2019-05-18T06:43:05.480Z,96449.33
2019-05-18T06:45:32.699Z,96450.80
2019-05-18T06:47:59.753Z,96446.11
2019-05-18T06:50:29.178Z,96452.31
2019-05-18T06:52:56.851Z,96451.13
2019-05-18T06:55:25.367Z,96444.69
2019-05-18T06:57:56.694Z,96444.69
2019-05-18T07:00:23.861Z,96444.49
2019-05-18T07:02:50.806Z,96449.48
2019-05-18T07:05:18.007Z,96438.53
2019-05-18T07:07:45.061Z,96445.16
2019-05-18T07:10:15.579Z,96443.98
2019-05-18T07:12:42.536Z,96444.55
2019-05-18T07:15:11.738Z,96445.73
2019-05-18T07:17:39.193Z,96449.31
2019-05-18T07:20:06.991Z,96445.38
2019-05-18T07:22:34.011Z,96441.14
2019-05-18T07:25:01.573Z,96440.67
2019-05-18T07:27:28.974Z,96444.06
2019-05-18T07:29:56.031Z,96442.41
2019-05-18T07:32:23.021Z,96439.16
2019-05-18T07:34:50.376Z,96437.03
2019-05-18T07:37:17.363Z,96431.45
2019-05-18T07:39:44.428Z,96436.77
2019-05-18T07:42:11.675Z,96428.19
2019-05-18T07:44:38.601Z,96419.58
2019-05-18T07:47:05.727Z,96411.24
2019-05-18T07:49:32.779Z,96411.79
2019-05-18T07:52:00.243Z,96408.42
2019-05-18T07:54:27.228Z,96409.36
2019-05-18T07:56:54.545Z,96408.42
2019-05-18T07:59:21.635Z,96399.45
2019-05-18T08:01:49.398Z,96396.50
2019-05-18T08:04:16.653Z,96399.27
2019-05-18T08:06:44.144Z,96392.47
2019-05-18T08:09:11.426Z,96391.38
2019-05-18T08:11:38.764Z,96386.22
2019-05-18T08:14:05.886Z,96385.09
2019-05-18T08:16:33.229Z,96381.66
2019-05-18T08:19:00.527Z,96381.34
2019-05-18T08:21:27.568Z,96380.41
2019-05-18T08:23:54.842Z,96390.87
2019-05-18T08:26:21.953Z,96386.84
2019-05-18T08:28:48.835Z,96383.58
2019-05-18T08:31:16.244Z,96387.77
2019-05-18T08:33:43.444Z,96384.97
2019-05-18T08:36:10.877Z,96386.53
2019-05-18T08:38:37.887Z,96386.06
2019-05-18T08:41:05.147Z,96380.63
2019-05-18T08:43:32.265Z,96378.16
2019-05-18T08:45:59.432Z,96387.33
2019-05-18T08:48:26.733Z,96389.34
2019-05-18T08:50:53.960Z,96369.17
2019-05-18T08:53:21.244Z,96369.17
2019-05-18T08:55:48.260Z,96385.01
2019-05-18T08:58:15.280Z,96377.40
2019-05-18T09:00:42.331Z,96382.97
2019-05-18T09:03:09.342Z,96376.16
2019-05-18T09:05:36.668Z,96372.59
2019-05-18T09:08:03.690Z,96366.05
2019-05-18T09:10:30.751Z,96369.63
2019-05-18T09:12:57.886Z,96363.25
2019-05-18T09:15:25.160Z,96363.88
2019-05-18T09:17:52.141Z,96360.33
2019-05-18T09:20:19.526Z,96369.77
2019-05-18T09:22:46.614Z,96367.63
2019-05-18T09:25:14.455Z,96359.06
2019-05-18T09:27:41.821Z,96369.63
2019-05-18T09:30:10.707Z,96368.22
2019-05-18T09:32:38.152Z,96364.98
2019-05-18T09:35:07.195Z,96365.61
2019-05-18T09:37:34.128Z,96363.74
2019-05-18T09:40:01.957Z,96363.58
2019-05-18T09:42:29.419Z,96359.23
2019-05-18T09:44:56.726Z,96362.17
2019-05-18T09:47:23.760Z,96361.26
2019-05-18T09:49:50.721Z,96360.10
2019-05-18T09:52:18.180Z,96358.98
2019-05-18T09:54:45.328Z,96356.16
2019-05-18T09:57:12.476Z,96355.16
2019-05-18T09:59:39.882Z,96354.18
2019-05-18T10:02:07.028Z,96348.44
2019-05-18T10:04:34.187Z,96347.66
2019-05-18T10:07:01.211Z,96349.22
2019-05-18T10:09:38.547Z,96345.88
2019-05-18T10:11:57.584Z,96347.14
2019-05-18T10:14:24.765Z,96343.73
2019-05-18T10:16:51.677Z,96340.36
2019-05-18T10:19:18.696Z,96341.30
2019-05-18T10:21:45.996Z,96328.25
2019-05-18T10:24:13.321Z,96334.13
2019-05-18T10:26:40.556Z,96330.88
2019-05-18T10:29:07.675Z,96326.34
2019-05-18T10:31:34.672Z,96330.43
2019-05-18T10:34:02.315Z,96329.93
2019-05-18T10:36:29.490Z,96317.95
2019-05-18T10:38:56.599Z,96318.56
2019-05-18T10:41:23.657Z,96319.19
2019-05-18T10:43:50.728Z,96317.50
2019-05-18T10:46:18.092Z,96313.81
2019-05-18T10:48:45.391Z,96311.52
2019-05-18T10:51:12.591Z,96311.14
2019-05-18T10:53:39.620Z,96306.75
2019-05-18T10:56:06.744Z,96300.55
2019-05-18T10:58:33.829Z,96295.14
2019-05-18T11:01:01.025Z,96296.70
2019-05-18T11:03:28.339Z,96297.32
2019-05-18T11:05:55.427Z,96298.88
2019-05-18T11:08:22.498Z,96295.30
2019-05-18T11:10:49.391Z,96287.84
2019-05-18T11:13:17.323Z,96283.98
2019-05-18T11:15:44.629Z,96284.45
2019-05-18T11:18:11.987Z,96278.91
2019-05-18T11:20:39.120Z,96284.81
2019-05-18T11:23:06.260Z,96276.89
2019-05-18T11:25:33.236Z,96274.31
2019-05-18T11:28:00.507Z,96271.55
2019-05-18T11:30:27.662Z,96263.07
2019-05-18T11:32:54.773Z,96264.00
2019-05-18T11:35:22.047Z,96259.16
2019-05-18T11:37:49.358Z,96260.82
2019-05-18T11:40:17.593Z,96264.11
2019-05-18T11:42:44.732Z,96258.98
2019-05-18T11:45:15.204Z,96256.56
2019-05-18T11:47:42.719Z,96253.86
2019-05-18T11:50:10.728Z,96250.41
2019-05-18T11:52:38.041Z,96256.09
2019-05-18T11:55:06.260Z,96248.38
2019-05-18T11:57:33.455Z,96251.02
2019-05-18T12:00:01.044Z,96240.76
2019-05-18T12:02:28.965Z,96237.91
2019-05-18T12:04:56.228Z,96238.94
2019-05-18T12:07:23.219Z,96236.16
2019-05-18T12:09:50.459Z,96232.08
2019-05-18T12:12:17.759Z,96228.91
2019-05-18T12:14:45.176Z,96230.59
2019-05-18T12:17:12.506Z,96230.55
2019-05-18T12:19:39.623Z,96225.41
2019-05-18T12:22:06.723Z,96233.79
2019-05-18T12:24:33.884Z,96229.00
2019-05-18T12:27:01.202Z,96225.64
2019-05-18T12:29:28.207Z,96225.84
2019-05-18T12:31:55.242Z,96230.06
2019-05-18T12:34:22.238Z,96229.75
2019-05-18T12:36:49.652Z,96229.18
2019-05-18T12:39:16.899Z,96219.77
2019-05-18T12:41:43.835Z,96215.48
2019-05-18T12:44:10.968Z,96212.20
2019-05-18T12:46:37.950Z,96213.47
2019-05-18T12:49:05.057Z,96201.88
2019-05-18T12:51:32.223Z,96205.40
2019-05-18T12:53:59.699Z,96206.35
2019-05-18T12:56:26.810Z,96204.84
2019-05-18T12:58:54.019Z,96214.18
2019-05-18T13:01:21.115Z,96217.13
2019-05-18T13:03:48.147Z,96215.34
2019-05-18T13:06:15.040Z,96212.25
2019-05-18T13:08:42.709Z,96213.31
2019-05-18T13:11:09.604Z,96209.58
2019-05-18T13:13:37.000Z,96211.92
2019-05-18T13:16:04.177Z,96203.97
2019-05-18T13:18:31.213Z,96207.31
2019-05-18T13:20:58.312Z,96206.16
2019-05-18T13:23:25.614Z,96196.14
2019-05-18T13:25:52.683Z,96193.08
2019-05-18T13:28:19.779Z,96191.08
2019-05-18T13:30:47.151Z,96183.66
2019-05-18T13:33:14.156Z,96185.55
2019-05-18T13:35:41.561Z,96186.83
2019-05-18T13:38:08.715Z,96180.94
2019-05-18T13:40:35.827Z,96187.16
2019-05-18T13:43:03.036Z,96182.00
2019-05-18T13:45:30.036Z,96175.72
2019-05-18T13:47:57.313Z,96177.08
2019-05-18T13:50:24.403Z,96181.20
2019-05-18T13:52:51.959Z,96169.31
2019-05-18T13:55:19.294Z,96163.59
2019-05-18T13:57:46.720Z,96167.52
2019-05-18T14:00:16.500Z,96170.50
2019-05-18T14:02:43.828Z,96158.01
2019-05-18T14:05:12.371Z,96156.18
2019-05-18T14:07:39.741Z,96149.54
2019-05-18T14:10:07.888Z,96154.03
2019-05-18T14:12:35.157Z,96150.20
2019-05-18T14:15:04.504Z,96154.30
2019-05-18T14:17:32.055Z,96145.34
2019-05-18T14:19:59.102Z,96147.24
2019-05-18T14:22:26.310Z,96160.70
2019-05-18T14:24:53.219Z,96168.20
2019-05-18T14:27:20.484Z,96163.72
2019-05-18T14:29:47.505Z,96167.06
2019-05-18T14:32:14.609Z,96176.56
2019-05-18T14:34:41.556Z,96190.73
2019-05-18T14:37:08.507Z,96205.09
2019-05-18T14:39:37.172Z,96217.08
2019-05-18T14:42:04.285Z,96221.84
2019-05-18T14:44:31.590Z,96221.31
2019-05-18T14:46:58.717Z,96225.12
2019-05-18T14:49:26.118Z,96236.20
2019-05-18T14:51:53.087Z,96259.86
2019-05-18T14:54:24.917Z,96252.39
2019-05-18T14:56:49.784Z,96218.44
2019-05-18T14:59:16.967Z,96216.46
2019-05-18T15:01:44.220Z,96204.75
2019-05-18T15:04:11.551Z,96212.03
2019-05-18T15:06:38.674Z,96194.41
2019-05-18T15:09:05.901Z,96196.34
2019-05-18T15:11:33.062Z,96186.50
2019-05-18T15:14:00.494Z,96188.01
2019-05-18T15:16:28.626Z,96191.66
2019-05-18T15:18:55.848Z,96190.59
2019-05-18T15:21:23.330Z,96195.41
2019-05-18T15:23:50.386Z,96196.48
2019-05-18T15:26:17.825Z,96197.79
2019-05-18T15:28:44.822Z,96206.33
2019-05-18T15:31:11.775Z,96210.58
2019-05-18T15:33:39.177Z,96200.64
2019-05-18T15:36:06.557Z,96198.40
2019-05-18T15:38:33.543Z,96195.96
2019-05-18T15:41:00.794Z,96199.22
2019-05-18T15:43:27.802Z,96194.02
2019-05-18T15:45:55.020Z,96185.11
2019-05-18T15:48:22.132Z,96181.36
2019-05-18T15:50:49.591Z,96188.38
2019-05-18T15:53:17.097Z,96191.11
2019-05-18T15:55:44.390Z,96187.14
2019-05-18T15:58:11.424Z,96190.67
2019-05-18T16:00:38.625Z,96193.62
2019-05-18T16:03:06.048Z,96184.17
2019-05-18T16:05:33.347Z,96189.30
2019-05-18T16:08:00.683Z,96184.78
2019-05-18T16:10:27.596Z,96174.58
2019-05-18T16:12:54.735Z,96176.58
2019-05-18T16:15:22.091Z,96168.71
2019-05-18T16:17:49.244Z,96169.55
2019-05-18T16:20:16.870Z,96169.36
2019-05-18T16:22:44.569Z,96168.25
2019-05-18T16:25:12.168Z,96173.78
2019-05-18T16:27:39.158Z,96178.91
2019-05-18T16:30:07.795Z,96180.34
2019-05-18T16:32:35.393Z,96195.11
2019-05-18T16:35:07.574Z,96204.41
2019-05-18T16:37:34.861Z,96219.38
2019-05-18T16:40:02.807Z,96226.31
2019-05-18T16:42:29.934Z,96229.72
2019-05-18T16:44:57.010Z,96232.14
2019-05-18T16:47:24.033Z,96229.98
2019-05-18T16:49:51.370Z,96234.75
2019-05-18T16:52:18.672Z,96237.33
2019-05-18T16:54:46.897Z,96238.75
2019-05-18T16:57:15.007Z,96237.19
2019-05-18T16:59:42.111Z,96241.75
2019-05-18T17:02:09.441Z,96242.20
2019-05-18T17:04:36.487Z,96235.35
2019-05-18T17:07:04.092Z,96229.11
2019-05-18T17:09:32.052Z,96225.86
2019-05-18T17:11:58.940Z,96219.22
2019-05-18T17:14:26.107Z,96224.77
2019-05-18T17:16:53.067Z,96221.11
2019-05-18T17:19:20.217Z,96225.46
2019-05-18T17:21:47.424Z,96235.72
2019-05-18T17:24:14.753Z,96229.86
2019-05-18T17:26:52.277Z,96234.00
2019-05-18T17:29:11.054Z,96237.75
2019-05-18T17:31:38.070Z,96235.78
2019-05-18T17:34:05.308Z,96232.83
2019-05-18T17:36:32.420Z,96222.05
2019-05-18T17:38:59.716Z,96222.06
2019-05-18T17:41:26.878Z,96213.23
2019-05-18T17:43:54.172Z,96217.73
2019-05-18T17:46:21.396Z,96224.05
2019-05-18T17:48:48.515Z,96229.13
2019-05-18T17:51:15.767Z,96234.23
2019-05-18T17:53:42.913Z,96225.03
2019-05-18T17:56:09.914Z,96210.14
2019-05-18T17:58:36.839Z,96207.78
2019-05-18T18:01:03.906Z,96209.16
2019-05-18T18:03:31.249Z,96211.71
2019-05-18T18:05:58.379Z,96216.43
2019-05-18T18:08:25.435Z,96230.53
2019-05-18T18:10:52.445Z,96230.35
2019-05-18T18:13:19.663Z,96236.20
2019-05-18T18:15:46.667Z,96240.92
2019-05-18T18:18:14.294Z,96239.53
2019-05-18T18:20:41.289Z,96242.46
2019-05-18T18:23:08.799Z,96242.30
2019-05-18T18:25:35.668Z,96232.67
2019-05-18T18:28:03.277Z,96234.23
2019-05-18T18:30:30.487Z,96240.31
2019-05-18T18:32:58.439Z,96232.66
2019-05-18T18:35:25.485Z,96241.67
2019-05-18T18:37:52.327Z,96243.03
2019-05-18T18:40:19.791Z,96239.70
2019-05-18T18:42:46.816Z,96248.90
2019-05-18T18:45:15.041Z,96247.71
2019-05-18T18:47:42.248Z,96250.05
2019-05-18T18:50:09.996Z,96248.50
2019-05-18T18:52:37.263Z,96250.05
2019-05-18T18:55:06.944Z,96247.49
2019-05-18T18:57:41.081Z,96249.63
2019-05-18T19:00:05.927Z,96243.92
2019-05-18T19:02:33.042Z,96250.76
2019-05-18T19:05:00.198Z,96246.02
2019-05-18T19:07:27.158Z,96246.80
2019-05-18T19:09:54.214Z,96249.31
2019-05-18T19:12:21.263Z,96243.63
2019-05-18T19:14:48.669Z,96247.55
2019-05-18T19:17:16.227Z,96245.36
2019-05-18T19:19:43.338Z,96249.06
2019-05-18T19:22:10.360Z,96250.19
2019-05-18T19:24:37.525Z,96259.16
2019-05-18T19:27:04.612Z,96260.08
2019-05-18T19:29:32.536Z,96255.16
2019-05-18T19:31:59.859Z,96257.11
2019-05-18T19:34:26.895Z,96256.08
2019-05-18T19:36:54.555Z,96256.27
2019-05-18T19:39:23.074Z,96254.91
2019-05-18T19:41:50.385Z,96255.08
2019-05-18T19:44:17.382Z,96248.81
2019-05-18T19:46:44.329Z,96249.52
2019-05-18T19:49:11.469Z,96253.00
2019-05-18T19:51:38.666Z,96255.36
2019-05-18T19:54:05.816Z,96259.42
2019-05-18T19:56:39.719Z,96257.47
2019-05-18T19:59:02.396Z,96255.73
2019-05-18T20:01:30.055Z,96249.88
2019-05-18T20:03:57.523Z,96249.27
2019-05-18T20:06:24.827Z,96255.28
2019-05-18T20:08:52.097Z,96250.37
2019-05-18T20:11:19.230Z,96248.80
2019-05-18T20:13:46.290Z,96247.02
2019-05-18T20:16:13.212Z,96237.66
2019-05-18T20:18:40.505Z,96244.91
2019-05-18T20:21:07.553Z,96250.37
2019-05-18T20:23:34.482Z,96252.12
2019-05-18T20:26:01.598Z,96249.97
2019-05-18T20:28:28.561Z,96240.72
2019-05-18T20:30:55.737Z,96243.21
2019-05-18T20:33:23.104Z,96239.47
2019-05-18T20:35:50.600Z,96239.05
2019-05-18T20:38:17.684Z,96236.31
2019-05-18T20:40:44.863Z,96234.69
2019-05-18T20:43:12.290Z,96233.11
2019-05-18T20:45:39.343Z,96228.78
2019-05-18T20:48:06.614Z,96225.27
2019-05-18T20:50:33.749Z,96227.78
2019-05-18T20:53:00.668Z,96228.58
2019-05-18T20:55:28.061Z,96227.95
2019-05-18T20:57:57.189Z,96228.70
2019-05-18T21:00:24.202Z,96232.57
2019-05-18T21:02:51.197Z,96237.41
2019-05-18T21:05:18.450Z,96245.44
2019-05-18T21:07:45.483Z,96237.77
2019-05-18T21:10:12.906Z,96234.63
2019-05-18T21:12:39.931Z,96234.02
2019-05-18T21:15:08.712Z,96237.70
2019-05-18T21:17:35.997Z,96238.86
2019-05-18T21:20:04.821Z,96228.67
2019-05-18T21:22:31.767Z,96239.42
2019-05-18T21:24:59.079Z,96233.91
2019-05-18T21:27:25.988Z,96232.52
2019-05-18T21:29:53.246Z,96234.63
2019-05-18T21:32:20.332Z,96235.95
2019-05-18T21:34:47.257Z,96234.19
2019-05-18T21:37:14.321Z,96242.75
2019-05-18T21:39:41.480Z,96233.35
2019-05-18T21:42:08.558Z,96234.30
2019-05-18T21:44:35.787Z,96245.57
2019-05-18T21:47:03.008Z,96241.03
2019-05-18T21:49:30.284Z,96239.19
2019-05-18T21:51:57.362Z,96234.44
2019-05-18T21:54:24.420Z,96234.20
2019-05-18T21:56:51.351Z,96235.13
2019-05-18T21:59:18.300Z,96234.64
2019-05-18T22:01:45.199Z,96232.62
2019-05-18T22:04:12.251Z,96226.50
2019-05-18T22:06:39.948Z,96231.69
2019-05-18T22:09:07.183Z,96225.17
2019-05-18T22:11:34.591Z,96224.35
2019-05-18T22:14:03.564Z,96222.35
2019-05-18T22:16:30.742Z,96228.96
2019-05-18T22:18:57.733Z,96218.05
2019-05-18T22:21:24.947Z,96226.87
2019-05-18T22:23:52.440Z,96220.26
2019-05-18T22:26:19.868Z,96216.17
2019-05-18T22:28:47.210Z,96217.53
2019-05-18T22:31:14.764Z,96213.02
2019-05-18T22:33:42.277Z,96208.70
2019-05-18T22:36:09.793Z,96207.13
2019-05-18T22:38:36.822Z,96202.83
2019-05-18T22:41:03.944Z,96210.41
2019-05-18T22:43:30.887Z,96211.14
2019-05-18T22:45:58.044Z,96207.98
2019-05-18T22:48:39.997Z,96210.53
2019-05-18T22:50:54.523Z,96212.05
2019-05-18T22:53:21.919Z,96207.89
2019-05-18T22:55:48.879Z,96210.02
2019-05-18T22:58:15.830Z,96203.28
2019-05-18T23:00:43.057Z,96204.25
2019-05-18T23:03:10.131Z,96210.86
2019-05-18T23:05:37.752Z,96201.67
2019-05-18T23:08:04.952Z,96200.06
2019-05-18T23:10:32.032Z,96197.23
2019-05-18T23:12:59.184Z,96207.41
2019-05-18T23:15:26.459Z,96200.27
2019-05-18T23:17:53.464Z,96195.29
2019-05-18T23:20:20.787Z,96194.61
2019-05-18T23:22:47.857Z,96196.05
2019-05-18T23:25:15.070Z,96188.19
2019-05-18T23:27:42.248Z,96195.54
2019-05-18T23:30:10.008Z,96189.80
2019-05-18T23:32:38.725Z,96194.42
2019-05-18T23:35:06.160Z,96189.13
2019-05-18T23:37:33.307Z,96189.47
2019-05-18T23:40:00.608Z,96192.98
2019-05-18T23:42:27.774Z,96189.27
2019-05-18T23:44:54.840Z,96185.35
2019-05-18T23:47:22.977Z,96182.98
2019-05-18T23:49:50.075Z,96183.70
2019-05-18T23:52:17.768Z,96181.55
2019-05-18T23:54:45.243Z,96181.33
2019-05-18T23:57:12.277Z,96177.25
2019-05-18T23:59:39.547Z,96178.25
